createdAt,value
2022-08-03T00:00:54.967Z,4.55
2022-08-03T00:06:03.532Z,5.25
2022-08-03T00:11:07.494Z,5.18
2022-08-03T00:16:13.243Z,4.85
2022-08-03T00:21:15.801Z,5.53
2022-08-03T00:26:18.390Z,5.53
2022-08-03T00:31:32.217Z,5.90
2022-08-03T00:36:44.797Z,5.68
2022-08-03T00:41:47.294Z,5.85
2022-08-03T00:46:51.164Z,4.32
2022-08-03T00:51:53.809Z,5.30
2022-08-03T00:56:59.973Z,5.05
2022-08-03T01:02:04.481Z,4.35
2022-08-03T01:07:14.979Z,4.63
2022-08-03T01:12:26.215Z,4.15
2022-08-03T01:17:36.772Z,4.30
2022-08-03T01:23:04.274Z,4.32
2022-08-03T01:28:26.434Z,3.97
2022-08-03T01:33:37.194Z,4.57
2022-08-03T01:38:44.378Z,4.72
2022-08-03T01:44:26.608Z,4.13
2022-08-03T01:49:15.252Z,4.95
2022-08-03T01:54:19.222Z,5.60
2022-08-03T01:59:23.096Z,5.05
2022-08-03T02:04:29.200Z,4.50
2022-08-03T02:09:32.889Z,5.35
2022-08-03T02:14:36.580Z,4.88
2022-08-03T02:19:41.547Z,5.10
2022-08-03T02:24:49.275Z,6.03
2022-08-03T02:30:01.398Z,5.80
2022-08-03T02:35:10.724Z,6.35
2022-08-03T02:40:16.091Z,6.50
2022-08-03T02:45:21.290Z,6.47
2022-08-03T02:50:27.517Z,6.28
2022-08-03T02:55:31.427Z,6.03
2022-08-03T03:00:34.435Z,5.10
2022-08-03T03:05:56.336Z,6.85
2022-08-03T03:11:01.713Z,6.07
2022-08-03T03:16:07.013Z,6.70
2022-08-03T03:21:11.731Z,6.78
2022-08-03T03:26:15.661Z,7.10
2022-08-03T03:31:18.225Z,7.30
2022-08-03T03:36:22.255Z,6.63
2022-08-03T03:41:25.166Z,7.25
2022-08-03T03:46:27.886Z,6.97
2022-08-03T03:51:31.928Z,7.32
2022-08-03T03:56:35.026Z,8.20
2022-08-03T04:01:37.543Z,7.45
2022-08-03T04:06:59.002Z,7.23
2022-08-03T04:12:03.516Z,8.18
2022-08-03T04:17:10.258Z,7.57
2022-08-03T04:22:18.606Z,8.00
2022-08-03T04:27:24.233Z,8.57
2022-08-03T04:32:28.704Z,9.65
2022-08-03T04:37:39.531Z,10.43
2022-08-03T04:42:43.976Z,10.35
2022-08-03T04:47:46.803Z,10.45
2022-08-03T04:52:51.408Z,10.65
2022-08-03T04:57:54.073Z,11.10
2022-08-03T05:02:56.718Z,8.48
2022-08-03T05:08:00.831Z,9.05
2022-08-03T05:13:06.027Z,8.35
2022-08-03T05:18:13.522Z,7.85
2022-08-03T05:23:18.178Z,6.93
2022-08-03T05:28:20.808Z,5.70
2022-08-03T05:33:23.328Z,5.35
2022-08-03T05:38:28.678Z,6.57
2022-08-03T05:43:36.979Z,5.82
2022-08-03T05:48:42.409Z,5.57
2022-08-03T05:53:46.404Z,6.13
2022-08-03T05:58:48.964Z,5.50
